sensor_id;sensor_type;location;lat;lon;timestamp;temperature;humidity
43183;DHT22;28802;38.578;-0.066;2023-06-10T00:01:45;23.00;99.90
43183;DHT22;28802;38.578;-0.066;2023-06-10T00:04:15;23.00;99.90
43183;DHT22;28802;38.578;-0.066;2023-06-10T00:06:45;23.00;99.90
43183;DHT22;28802;38.578;-0.066;2023-06-10T00:09:14;23.00;99.90
43183;DHT22;28802;38.578;-0.066;2023-06-10T00:11:40;23.00;99.90
43183;DHT22;28802;38.578;-0.066;2023-06-10T00:14:06;23.00;99.90
43183;DHT22;28802;38.578;-0.066;2023-06-10T00:16:32;23.00;99.90
43183;DHT22;28802;38.578;-0.066;2023-06-10T00:19:03;23.00;99.90
43183;DHT22;28802;38.578;-0.066;2023-06-10T00:21:30;23.00;99.90
43183;DHT22;28802;38.578;-0.066;2023-06-10T00:24:04;23.00;99.90
43183;DHT22;28802;38.578;-0.066;2023-06-10T00:26:31;23.00;99.90
43183;DHT22;28802;38.578;-0.066;2023-06-10T00:28:57;23.00;99.90
43183;DHT22;28802;38.578;-0.066;2023-06-10T00:31:23;23.00;99.90
43183;DHT22;28802;38.578;-0.066;2023-06-10T00:33:49;22.90;99.90
43183;DHT22;28802;38.578;-0.066;2023-06-10T00:36:15;22.80;99.90
43183;DHT22;28802;38.578;-0.066;2023-06-10T00:38:41;22.70;99.90
43183;DHT22;28802;38.578;-0.066;2023-06-10T00:41:08;22.60;99.90
43183;DHT22;28802;38.578;-0.066;2023-06-10T00:43:34;22.60;99.90
43183;DHT22;28802;38.578;-0.066;2023-06-10T00:46:00;22.60;99.90
43183;DHT22;28802;38.578;-0.066;2023-06-10T00:48:29;22.60;99.90
43183;DHT22;28802;38.578;-0.066;2023-06-10T00:50:56;22.70;99.90
43183;DHT22;28802;38.578;-0.066;2023-06-10T00:53:23;22.70;99.90
43183;DHT22;28802;38.578;-0.066;2023-06-10T00:55:50;22.80;99.90
43183;DHT22;28802;38.578;-0.066;2023-06-10T00:58:16;22.70;99.90
43183;DHT22;28802;38.578;-0.066;2023-06-10T01:00:42;22.70;99.90
43183;DHT22;28802;38.578;-0.066;2023-06-10T01:03:10;22.70;99.90
43183;DHT22;28802;38.578;-0.066;2023-06-10T01:05:38;22.70;99.90
43183;DHT22;28802;38.578;-0.066;2023-06-10T01:08:16;22.70;99.90
43183;DHT22;28802;38.578;-0.066;2023-06-10T01:11:05;22.70;99.90
43183;DHT22;28802;38.578;-0.066;2023-06-10T01:13:35;22.80;99.90
43183;DHT22;28802;38.578;-0.066;2023-06-10T01:16:02;22.80;99.90
43183;DHT22;28802;38.578;-0.066;2023-06-10T01:18:31;22.80;99.90
43183;DHT22;28802;38.578;-0.066;2023-06-10T01:20:57;23.00;99.90
43183;DHT22;28802;38.578;-0.066;2023-06-10T01:23:23;23.00;99.90
43183;DHT22;28802;38.578;-0.066;2023-06-10T01:26:00;23.00;99.90
43183;DHT22;28802;38.578;-0.066;2023-06-10T01:28:46;23.00;99.90
43183;DHT22;28802;38.578;-0.066;2023-06-10T01:33:45;23.10;99.90
43183;DHT22;28802;38.578;-0.066;2023-06-10T01:36:12;23.20;99.90
43183;DHT22;28802;38.578;-0.066;2023-06-10T01:38:46;23.10;99.90
43183;DHT22;28802;38.578;-0.066;2023-06-10T01:41:16;23.10;99.90
43183;DHT22;28802;38.578;-0.066;2023-06-10T01:43:44;23.10;99.90
43183;DHT22;28802;38.578;-0.066;2023-06-10T01:46:10;23.00;99.90
43183;DHT22;28802;38.578;-0.066;2023-06-10T01:48:37;22.90;99.90
43183;DHT22;28802;38.578;-0.066;2023-06-10T01:51:04;23.00;99.90
43183;DHT22;28802;38.578;-0.066;2023-06-10T01:53:30;22.90;99.90
43183;DHT22;28802;38.578;-0.066;2023-06-10T01:55:56;22.90;99.90
43183;DHT22;28802;38.578;-0.066;2023-06-10T01:58:22;22.90;99.90
43183;DHT22;28802;38.578;-0.066;2023-06-10T02:00:48;23.00;99.90
43183;DHT22;28802;38.578;-0.066;2023-06-10T02:03:14;22.90;99.90
43183;DHT22;28802;38.578;-0.066;2023-06-10T02:05:41;22.80;99.90
43183;DHT22;28802;38.578;-0.066;2023-06-10T02:08:07;22.80;99.90
43183;DHT22;28802;38.578;-0.066;2023-06-10T02:10:34;22.80;99.90
43183;DHT22;28802;38.578;-0.066;2023-06-10T02:12:59;22.60;99.90
43183;DHT22;28802;38.578;-0.066;2023-06-10T02:15:26;22.60;99.90
43183;DHT22;28802;38.578;-0.066;2023-06-10T02:17:52;22.60;99.90
43183;DHT22;28802;38.578;-0.066;2023-06-10T02:20:18;22.60;99.90
43183;DHT22;28802;38.578;-0.066;2023-06-10T02:22:44;22.60;99.90
43183;DHT22;28802;38.578;-0.066;2023-06-10T02:25:10;22.60;99.90
43183;DHT22;28802;38.578;-0.066;2023-06-10T02:27:36;22.60;99.90
43183;DHT22;28802;38.578;-0.066;2023-06-10T02:30:02;22.60;99.90
43183;DHT22;28802;38.578;-0.066;2023-06-10T02:32:31;22.60;99.90
43183;DHT22;28802;38.578;-0.066;2023-06-10T02:34:57;22.50;99.90
43183;DHT22;28802;38.578;-0.066;2023-06-10T02:37:24;22.50;99.90
43183;DHT22;28802;38.578;-0.066;2023-06-10T02:39:51;22.40;99.90
43183;DHT22;28802;38.578;-0.066;2023-06-10T02:42:17;22.40;99.90
43183;DHT22;28802;38.578;-0.066;2023-06-10T02:44:43;22.30;99.90
43183;DHT22;28802;38.578;-0.066;2023-06-10T02:47:13;22.30;99.90
43183;DHT22;28802;38.578;-0.066;2023-06-10T02:49:39;22.30;99.90
43183;DHT22;28802;38.578;-0.066;2023-06-10T02:52:06;22.20;99.90
43183;DHT22;28802;38.578;-0.066;2023-06-10T02:54:33;22.10;99.90
43183;DHT22;28802;38.578;-0.066;2023-06-10T02:56:59;22.10;99.90
43183;DHT22;28802;38.578;-0.066;2023-06-10T02:59:27;22.00;99.90
43183;DHT22;28802;38.578;-0.066;2023-06-10T03:01:54;22.00;99.90
43183;DHT22;28802;38.578;-0.066;2023-06-10T03:04:21;22.10;99.90
43183;DHT22;28802;38.578;-0.066;2023-06-10T03:06:56;22.00;99.90
43183;DHT22;28802;38.578;-0.066;2023-06-10T03:09:28;21.90;99.90
43183;DHT22;28802;38.578;-0.066;2023-06-10T03:11:57;22.00;99.90
43183;DHT22;28802;38.578;-0.066;2023-06-10T03:14:25;22.00;99.90
43183;DHT22;28802;38.578;-0.066;2023-06-10T03:16:51;21.70;99.90
43183;DHT22;28802;38.578;-0.066;2023-06-10T03:19:19;21.80;99.90
43183;DHT22;28802;38.578;-0.066;2023-06-10T03:21:57;22.00;99.90
43183;DHT22;28802;38.578;-0.066;2023-06-10T03:24:23;22.00;99.90
43183;DHT22;28802;38.578;-0.066;2023-06-10T03:26:49;22.10;99.90
43183;DHT22;28802;38.578;-0.066;2023-06-10T03:29:16;22.20;99.90
43183;DHT22;28802;38.578;-0.066;2023-06-10T03:31:42;22.00;99.90
43183;DHT22;28802;38.578;-0.066;2023-06-10T03:34:08;22.10;99.90
43183;DHT22;28802;38.578;-0.066;2023-06-10T03:36:35;22.10;99.90
43183;DHT22;28802;38.578;-0.066;2023-06-10T03:39:03;22.20;99.90
43183;DHT22;28802;38.578;-0.066;2023-06-10T03:41:29;22.10;99.90
43183;DHT22;28802;38.578;-0.066;2023-06-10T03:43:56;22.20;99.90
43183;DHT22;28802;38.578;-0.066;2023-06-10T03:46:22;22.20;99.90
43183;DHT22;28802;38.578;-0.066;2023-06-10T03:48:48;22.30;99.90
43183;DHT22;28802;38.578;-0.066;2023-06-10T03:51:14;22.30;99.90
43183;DHT22;28802;38.578;-0.066;2023-06-10T03:53:41;22.30;99.90
43183;DHT22;28802;38.578;-0.066;2023-06-10T03:56:06;22.30;99.90
43183;DHT22;28802;38.578;-0.066;2023-06-10T03:58:32;22.30;99.90
43183;DHT22;28802;38.578;-0.066;2023-06-10T04:00:58;22.20;99.90
43183;DHT22;28802;38.578;-0.066;2023-06-10T04:03:31;22.00;99.90
43183;DHT22;28802;38.578;-0.066;2023-06-10T04:05:58;22.10;99.90
43183;DHT22;28802;38.578;-0.066;2023-06-10T04:08:25;22.10;99.90
43183;DHT22;28802;38.578;-0.066;2023-06-10T04:10:52;22.10;99.90
43183;DHT22;28802;38.578;-0.066;2023-06-10T04:13:17;22.20;99.90
43183;DHT22;28802;38.578;-0.066;2023-06-10T04:15:54;22.20;99.90
43183;DHT22;28802;38.578;-0.066;2023-06-10T04:18:20;22.10;99.90
43183;DHT22;28802;38.578;-0.066;2023-06-10T04:20:50;22.10;99.90
43183;DHT22;28802;38.578;-0.066;2023-06-10T04:23:17;22.00;99.90
43183;DHT22;28802;38.578;-0.066;2023-06-10T04:25:45;22.00;99.90
43183;DHT22;28802;38.578;-0.066;2023-06-10T04:28:12;22.00;99.90
43183;DHT22;28802;38.578;-0.066;2023-06-10T04:30:37;22.00;99.90
43183;DHT22;28802;38.578;-0.066;2023-06-10T04:33:05;22.00;99.90
43183;DHT22;28802;38.578;-0.066;2023-06-10T04:35:32;22.10;99.90
43183;DHT22;28802;38.578;-0.066;2023-06-10T04:38:00;22.20;99.90
43183;DHT22;28802;38.578;-0.066;2023-06-10T04:40:29;22.20;99.90
43183;DHT22;28802;38.578;-0.066;2023-06-10T04:42:56;22.20;99.90
43183;DHT22;28802;38.578;-0.066;2023-06-10T04:45:22;22.20;99.90
43183;DHT22;28802;38.578;-0.066;2023-06-10T04:47:48;22.20;99.90
43183;DHT22;28802;38.578;-0.066;2023-06-10T04:50:14;22.20;99.90
43183;DHT22;28802;38.578;-0.066;2023-06-10T04:52:39;22.30;99.90
43183;DHT22;28802;38.578;-0.066;2023-06-10T04:55:07;22.30;99.90
43183;DHT22;28802;38.578;-0.066;2023-06-10T04:57:33;22.30;99.90
43183;DHT22;28802;38.578;-0.066;2023-06-10T04:59:59;22.30;99.90
43183;DHT22;28802;38.578;-0.066;2023-06-10T05:02:25;22.40;99.90
43183;DHT22;28802;38.578;-0.066;2023-06-10T05:04:51;22.40;99.90
43183;DHT22;28802;38.578;-0.066;2023-06-10T05:07:18;22.50;99.90
43183;DHT22;28802;38.578;-0.066;2023-06-10T05:09:44;22.40;99.90
43183;DHT22;28802;38.578;-0.066;2023-06-10T05:12:10;22.40;99.90
43183;DHT22;28802;38.578;-0.066;2023-06-10T05:14:36;22.50;99.90
43183;DHT22;28802;38.578;-0.066;2023-06-10T05:17:02;22.50;99.90
43183;DHT22;28802;38.578;-0.066;2023-06-10T05:19:28;22.40;99.90
43183;DHT22;28802;38.578;-0.066;2023-06-10T05:21:54;22.30;99.90
43183;DHT22;28802;38.578;-0.066;2023-06-10T05:24:20;22.40;99.90
43183;DHT22;28802;38.578;-0.066;2023-06-10T05:26:45;22.50;99.90
43183;DHT22;28802;38.578;-0.066;2023-06-10T05:29:12;22.60;99.90
43183;DHT22;28802;38.578;-0.066;2023-06-10T05:31:38;22.70;99.90
43183;DHT22;28802;38.578;-0.066;2023-06-10T05:34:04;22.70;99.90
43183;DHT22;28802;38.578;-0.066;2023-06-10T05:36:30;22.70;99.90
43183;DHT22;28802;38.578;-0.066;2023-06-10T05:38:56;22.80;99.90
43183;DHT22;28802;38.578;-0.066;2023-06-10T05:41:22;23.00;99.90
43183;DHT22;28802;38.578;-0.066;2023-06-10T05:43:48;23.00;99.90
43183;DHT22;28802;38.578;-0.066;2023-06-10T05:46:14;23.10;99.90
43183;DHT22;28802;38.578;-0.066;2023-06-10T05:48:40;23.20;99.90
43183;DHT22;28802;38.578;-0.066;2023-06-10T05:51:06;23.20;99.90
43183;DHT22;28802;38.578;-0.066;2023-06-10T05:53:32;23.40;99.90
43183;DHT22;28802;38.578;-0.066;2023-06-10T05:55:58;23.50;99.90
43183;DHT22;28802;38.578;-0.066;2023-06-10T05:58:24;23.50;99.90
43183;DHT22;28802;38.578;-0.066;2023-06-10T06:00:50;23.60;99.90
43183;DHT22;28802;38.578;-0.066;2023-06-10T06:03:17;24.00;99.90
43183;DHT22;28802;38.578;-0.066;2023-06-10T06:05:43;24.80;99.90
43183;DHT22;28802;38.578;-0.066;2023-06-10T06:08:10;25.40;99.90
43183;DHT22;28802;38.578;-0.066;2023-06-10T06:10:36;25.50;99.90
43183;DHT22;28802;38.578;-0.066;2023-06-10T06:13:02;25.50;99.90
43183;DHT22;28802;38.578;-0.066;2023-06-10T06:15:28;25.40;99.90
43183;DHT22;28802;38.578;-0.066;2023-06-10T06:17:54;25.40;99.90
43183;DHT22;28802;38.578;-0.066;2023-06-10T06:20:22;25.60;99.90
43183;DHT22;28802;38.578;-0.066;2023-06-10T06:22:48;25.80;99.90
43183;DHT22;28802;38.578;-0.066;2023-06-10T06:25:14;26.00;99.90
43183;DHT22;28802;38.578;-0.066;2023-06-10T06:27:40;26.40;99.90
43183;DHT22;28802;38.578;-0.066;2023-06-10T06:30:06;25.90;99.90
43183;DHT22;28802;38.578;-0.066;2023-06-10T06:32:32;25.00;99.90
43183;DHT22;28802;38.578;-0.066;2023-06-10T06:34:58;24.90;99.90
43183;DHT22;28802;38.578;-0.066;2023-06-10T06:37:25;25.30;99.90
43183;DHT22;28802;38.578;-0.066;2023-06-10T06:40:01;25.50;99.90
43183;DHT22;28802;38.578;-0.066;2023-06-10T06:42:27;25.70;99.90
43183;DHT22;28802;38.578;-0.066;2023-06-10T06:45:13;25.60;99.90
43183;DHT22;28802;38.578;-0.066;2023-06-10T06:47:39;25.30;99.90
43183;DHT22;28802;38.578;-0.066;2023-06-10T06:50:05;25.20;99.90
43183;DHT22;28802;38.578;-0.066;2023-06-10T06:52:31;25.30;99.90
43183;DHT22;28802;38.578;-0.066;2023-06-10T06:54:57;25.20;99.90
43183;DHT22;28802;38.578;-0.066;2023-06-10T06:57:22;26.10;99.90
43183;DHT22;28802;38.578;-0.066;2023-06-10T06:59:49;27.60;99.90
43183;DHT22;28802;38.578;-0.066;2023-06-10T07:02:15;28.60;99.90
43183;DHT22;28802;38.578;-0.066;2023-06-10T07:04:41;28.90;99.90
43183;DHT22;28802;38.578;-0.066;2023-06-10T07:07:09;29.30;99.90
43183;DHT22;28802;38.578;-0.066;2023-06-10T07:09:35;30.10;99.90
43183;DHT22;28802;38.578;-0.066;2023-06-10T07:12:01;31.30;99.90
43183;DHT22;28802;38.578;-0.066;2023-06-10T07:14:27;31.90;99.90
43183;DHT22;28802;38.578;-0.066;2023-06-10T07:16:53;32.00;99.90
43183;DHT22;28802;38.578;-0.066;2023-06-10T07:19:19;31.90;99.90
43183;DHT22;28802;38.578;-0.066;2023-06-10T07:21:45;31.10;99.90
43183;DHT22;28802;38.578;-0.066;2023-06-10T07:24:10;30.60;99.90
43183;DHT22;28802;38.578;-0.066;2023-06-10T07:26:36;31.00;99.90
43183;DHT22;28802;38.578;-0.066;2023-06-10T07:29:02;31.00;99.90
43183;DHT22;28802;38.578;-0.066;2023-06-10T07:31:28;31.30;99.90
43183;DHT22;28802;38.578;-0.066;2023-06-10T07:33:54;32.00;99.90
43183;DHT22;28802;38.578;-0.066;2023-06-10T07:36:20;32.50;99.90
43183;DHT22;28802;38.578;-0.066;2023-06-10T07:38:46;33.00;99.90
43183;DHT22;28802;38.578;-0.066;2023-06-10T07:41:12;33.10;99.90
43183;DHT22;28802;38.578;-0.066;2023-06-10T07:43:38;33.80;99.90
43183;DHT22;28802;38.578;-0.066;2023-06-10T07:46:04;34.40;99.90
43183;DHT22;28802;38.578;-0.066;2023-06-10T07:48:31;34.80;99.90
43183;DHT22;28802;38.578;-0.066;2023-06-10T07:50:57;35.00;99.90
43183;DHT22;28802;38.578;-0.066;2023-06-10T07:53:23;34.80;99.90
43183;DHT22;28802;38.578;-0.066;2023-06-10T07:55:49;34.30;99.90
43183;DHT22;28802;38.578;-0.066;2023-06-10T07:58:14;33.70;99.90
43183;DHT22;28802;38.578;-0.066;2023-06-10T08:00:40;33.50;99.90
43183;DHT22;28802;38.578;-0.066;2023-06-10T08:03:07;33.20;99.90
43183;DHT22;28802;38.578;-0.066;2023-06-10T08:05:33;32.70;99.90
43183;DHT22;28802;38.578;-0.066;2023-06-10T08:07:59;32.30;99.90
43183;DHT22;28802;38.578;-0.066;2023-06-10T08:10:25;32.10;99.90
43183;DHT22;28802;38.578;-0.066;2023-06-10T08:12:51;32.00;99.90
43183;DHT22;28802;38.578;-0.066;2023-06-10T08:15:16;31.90;99.90
43183;DHT22;28802;38.578;-0.066;2023-06-10T08:17:42;32.10;99.90
43183;DHT22;28802;38.578;-0.066;2023-06-10T08:20:08;32.60;99.90
43183;DHT22;28802;38.578;-0.066;2023-06-10T08:22:34;32.70;99.90
43183;DHT22;28802;38.578;-0.066;2023-06-10T08:25:00;32.50;99.90
43183;DHT22;28802;38.578;-0.066;2023-06-10T08:27:26;33.50;99.90
43183;DHT22;28802;38.578;-0.066;2023-06-10T08:29:52;34.50;99.90
43183;DHT22;28802;38.578;-0.066;2023-06-10T08:32:18;31.80;99.90
43183;DHT22;28802;38.578;-0.066;2023-06-10T08:34:44;29.50;99.90
43183;DHT22;28802;38.578;-0.066;2023-06-10T08:37:10;28.10;99.90
43183;DHT22;28802;38.578;-0.066;2023-06-10T08:39:35;27.30;99.90
43183;DHT22;28802;38.578;-0.066;2023-06-10T08:42:23;27.00;99.90
43183;DHT22;28802;38.578;-0.066;2023-06-10T08:44:55;26.60;99.90
43183;DHT22;28802;38.578;-0.066;2023-06-10T08:47:25;26.50;99.90
43183;DHT22;28802;38.578;-0.066;2023-06-10T08:49:51;26.50;99.90
43183;DHT22;28802;38.578;-0.066;2023-06-10T08:52:22;26.70;99.90
43183;DHT22;28802;38.578;-0.066;2023-06-10T08:55:01;27.30;99.90
43183;DHT22;28802;38.578;-0.066;2023-06-10T08:57:29;28.30;99.90
43183;DHT22;28802;38.578;-0.066;2023-06-10T08:59:57;29.00;99.90
43183;DHT22;28802;38.578;-0.066;2023-06-10T09:02:24;29.70;99.90
43183;DHT22;28802;38.578;-0.066;2023-06-10T09:04:50;29.30;99.90
43183;DHT22;28802;38.578;-0.066;2023-06-10T09:07:17;29.40;99.90
43183;DHT22;28802;38.578;-0.066;2023-06-10T09:09:44;29.40;99.90
43183;DHT22;28802;38.578;-0.066;2023-06-10T09:12:12;30.20;99.90
43183;DHT22;28802;38.578;-0.066;2023-06-10T09:14:38;30.10;99.90
43183;DHT22;28802;38.578;-0.066;2023-06-10T09:17:05;30.80;99.90
43183;DHT22;28802;38.578;-0.066;2023-06-10T09:19:32;31.00;99.90
43183;DHT22;28802;38.578;-0.066;2023-06-10T09:21:58;31.20;99.90
43183;DHT22;28802;38.578;-0.066;2023-06-10T09:24:24;31.80;99.90
43183;DHT22;28802;38.578;-0.066;2023-06-10T09:27:04;32.20;99.90
43183;DHT22;28802;38.578;-0.066;2023-06-10T09:29:44;31.10;99.90
43183;DHT22;28802;38.578;-0.066;2023-06-10T09:32:10;31.00;99.90
43183;DHT22;28802;38.578;-0.066;2023-06-10T09:34:36;31.60;99.90
43183;DHT22;28802;38.578;-0.066;2023-06-10T09:37:03;32.00;99.90
43183;DHT22;28802;38.578;-0.066;2023-06-10T09:39:28;31.20;99.90
43183;DHT22;28802;38.578;-0.066;2023-06-10T09:41:55;31.50;99.90
43183;DHT22;28802;38.578;-0.066;2023-06-10T09:44:21;31.90;99.90
43183;DHT22;28802;38.578;-0.066;2023-06-10T09:46:49;32.90;99.90
43183;DHT22;28802;38.578;-0.066;2023-06-10T09:49:19;33.40;99.90
43183;DHT22;28802;38.578;-0.066;2023-06-10T09:51:52;32.70;99.90
43183;DHT22;28802;38.578;-0.066;2023-06-10T09:54:19;33.40;99.90
43183;DHT22;28802;38.578;-0.066;2023-06-10T09:56:50;34.40;99.90
43183;DHT22;28802;38.578;-0.066;2023-06-10T09:59:28;34.20;99.90
43183;DHT22;28802;38.578;-0.066;2023-06-10T10:01:55;33.30;99.90
43183;DHT22;28802;38.578;-0.066;2023-06-10T10:04:25;32.90;99.90
43183;DHT22;28802;38.578;-0.066;2023-06-10T10:06:51;32.80;99.90
43183;DHT22;28802;38.578;-0.066;2023-06-10T10:09:17;33.10;99.90
43183;DHT22;28802;38.578;-0.066;2023-06-10T10:11:44;32.80;99.90
43183;DHT22;28802;38.578;-0.066;2023-06-10T10:14:11;31.90;99.90
43183;DHT22;28802;38.578;-0.066;2023-06-10T10:16:41;31.90;99.90
43183;DHT22;28802;38.578;-0.066;2023-06-10T10:19:16;32.30;99.90
43183;DHT22;28802;38.578;-0.066;2023-06-10T10:21:53;32.80;99.90
43183;DHT22;28802;38.578;-0.066;2023-06-10T10:24:21;33.30;99.90
43183;DHT22;28802;38.578;-0.066;2023-06-10T10:26:50;33.20;99.90
43183;DHT22;28802;38.578;-0.066;2023-06-10T10:31:50;32.90;99.90
43183;DHT22;28802;38.578;-0.066;2023-06-10T10:34:30;33.10;99.90
43183;DHT22;28802;38.578;-0.066;2023-06-10T10:37:01;32.80;99.90
43183;DHT22;28802;38.578;-0.066;2023-06-10T10:39:27;33.10;99.90
43183;DHT22;28802;38.578;-0.066;2023-06-10T10:41:55;32.60;99.90
43183;DHT22;28802;38.578;-0.066;2023-06-10T10:44:21;32.40;99.90
43183;DHT22;28802;38.578;-0.066;2023-06-10T10:46:51;32.00;99.90
43183;DHT22;28802;38.578;-0.066;2023-06-10T10:49:18;30.20;99.90
43183;DHT22;28802;38.578;-0.066;2023-06-10T10:52:01;30.40;99.90
43183;DHT22;28802;38.578;-0.066;2023-06-10T10:54:31;30.60;99.90
43183;DHT22;28802;38.578;-0.066;2023-06-10T10:57:14;29.80;99.90
43183;DHT22;28802;38.578;-0.066;2023-06-10T11:02:18;28.40;99.90
43183;DHT22;28802;38.578;-0.066;2023-06-10T11:04:47;29.10;99.90
43183;DHT22;28802;38.578;-0.066;2023-06-10T11:07:14;28.90;99.90
43183;DHT22;28802;38.578;-0.066;2023-06-10T11:10:08;29.30;99.90
43183;DHT22;28802;38.578;-0.066;2023-06-10T11:15:13;30.80;99.90
43183;DHT22;28802;38.578;-0.066;2023-06-10T11:26:20;29.30;99.90
43183;DHT22;28802;38.578;-0.066;2023-06-10T11:31:42;28.90;99.90
43183;DHT22;28802;38.578;-0.066;2023-06-10T11:34:09;29.50;99.90
43183;DHT22;28802;38.578;-0.066;2023-06-10T11:36:40;30.40;99.90
43183;DHT22;28802;38.578;-0.066;2023-06-10T11:39:09;30.30;99.90
43183;DHT22;28802;38.578;-0.066;2023-06-10T11:41:36;29.40;99.90
43183;DHT22;28802;38.578;-0.066;2023-06-10T11:44:08;29.00;99.90
43183;DHT22;28802;38.578;-0.066;2023-06-10T11:46:35;28.70;99.90
43183;DHT22;28802;38.578;-0.066;2023-06-10T11:49:01;28.50;99.90
43183;DHT22;28802;38.578;-0.066;2023-06-10T11:51:35;28.40;99.90
43183;DHT22;28802;38.578;-0.066;2023-06-10T11:54:01;28.10;99.90
43183;DHT22;28802;38.578;-0.066;2023-06-10T11:56:29;28.10;99.90
43183;DHT22;28802;38.578;-0.066;2023-06-10T11:58:57;28.00;99.90
43183;DHT22;28802;38.578;-0.066;2023-06-10T12:01:25;27.80;99.90
43183;DHT22;28802;38.578;-0.066;2023-06-10T12:04:08;28.10;99.90
43183;DHT22;28802;38.578;-0.066;2023-06-10T12:06:39;28.00;99.90
43183;DHT22;28802;38.578;-0.066;2023-06-10T12:09:07;28.70;99.90
43183;DHT22;28802;38.578;-0.066;2023-06-10T12:11:33;28.10;99.90
43183;DHT22;28802;38.578;-0.066;2023-06-10T12:14:00;27.40;99.90
43183;DHT22;28802;38.578;-0.066;2023-06-10T12:16:26;27.40;99.90
43183;DHT22;28802;38.578;-0.066;2023-06-10T12:19:04;27.20;99.90
43183;DHT22;28802;38.578;-0.066;2023-06-10T12:21:32;27.00;99.90
43183;DHT22;28802;38.578;-0.066;2023-06-10T12:24:04;27.00;99.90
43183;DHT22;28802;38.578;-0.066;2023-06-10T12:26:35;26.70;99.90
43183;DHT22;28802;38.578;-0.066;2023-06-10T12:29:12;26.50;99.90
43183;DHT22;28802;38.578;-0.066;2023-06-10T12:34:27;26.30;99.90
43183;DHT22;28802;38.578;-0.066;2023-06-10T12:36:53;26.30;99.90
43183;DHT22;28802;38.578;-0.066;2023-06-10T12:39:19;26.20;99.90
43183;DHT22;28802;38.578;-0.066;2023-06-10T12:41:49;26.20;99.90
43183;DHT22;28802;38.578;-0.066;2023-06-10T12:44:16;26.00;99.90
43183;DHT22;28802;38.578;-0.066;2023-06-10T12:46:42;25.80;99.90
43183;DHT22;28802;38.578;-0.066;2023-06-10T12:49:18;25.60;99.90
43183;DHT22;28802;38.578;-0.066;2023-06-10T12:51:44;25.50;99.90
43183;DHT22;28802;38.578;-0.066;2023-06-10T12:54:10;25.50;99.90
43183;DHT22;28802;38.578;-0.066;2023-06-10T12:56:36;25.60;99.90
43183;DHT22;28802;38.578;-0.066;2023-06-10T12:59:03;25.70;99.90
43183;DHT22;28802;38.578;-0.066;2023-06-10T13:01:29;25.90;99.90
43183;DHT22;28802;38.578;-0.066;2023-06-10T13:03:57;26.10;99.90
43183;DHT22;28802;38.578;-0.066;2023-06-10T13:06:23;26.20;99.90
43183;DHT22;28802;38.578;-0.066;2023-06-10T13:08:49;26.10;99.90
43183;DHT22;28802;38.578;-0.066;2023-06-10T13:11:16;25.90;99.90
43183;DHT22;28802;38.578;-0.066;2023-06-10T13:13:42;26.20;99.90
43183;DHT22;28802;38.578;-0.066;2023-06-10T13:16:08;26.40;99.90
43183;DHT22;28802;38.578;-0.066;2023-06-10T13:18:34;26.70;99.90
43183;DHT22;28802;38.578;-0.066;2023-06-10T13:21:06;27.10;99.90
43183;DHT22;28802;38.578;-0.066;2023-06-10T13:23:32;27.20;99.90
43183;DHT22;28802;38.578;-0.066;2023-06-10T13:25:58;27.00;99.90
43183;DHT22;28802;38.578;-0.066;2023-06-10T13:28:24;27.00;99.90
43183;DHT22;28802;38.578;-0.066;2023-06-10T13:30:51;27.10;99.90
43183;DHT22;28802;38.578;-0.066;2023-06-10T13:33:17;27.20;99.90
43183;DHT22;28802;38.578;-0.066;2023-06-10T13:35:43;27.10;99.90
43183;DHT22;28802;38.578;-0.066;2023-06-10T13:38:08;27.00;99.90
43183;DHT22;28802;38.578;-0.066;2023-06-10T13:40:35;27.10;99.90
43183;DHT22;28802;38.578;-0.066;2023-06-10T13:43:01;27.10;99.90
43183;DHT22;28802;38.578;-0.066;2023-06-10T13:45:28;27.20;99.90
43183;DHT22;28802;38.578;-0.066;2023-06-10T13:47:54;27.20;99.90
43183;DHT22;28802;38.578;-0.066;2023-06-10T13:50:20;27.40;99.90
43183;DHT22;28802;38.578;-0.066;2023-06-10T13:52:45;27.70;99.90
43183;DHT22;28802;38.578;-0.066;2023-06-10T13:55:11;27.90;99.90
43183;DHT22;28802;38.578;-0.066;2023-06-10T13:57:37;27.80;99.90
43183;DHT22;28802;38.578;-0.066;2023-06-10T14:00:04;27.90;99.90
43183;DHT22;28802;38.578;-0.066;2023-06-10T14:02:31;27.60;99.90
43183;DHT22;28802;38.578;-0.066;2023-06-10T14:04:57;27.50;99.90
43183;DHT22;28802;38.578;-0.066;2023-06-10T14:07:23;27.30;99.90
43183;DHT22;28802;38.578;-0.066;2023-06-10T14:09:51;27.40;99.90
43183;DHT22;28802;38.578;-0.066;2023-06-10T14:12:17;27.30;99.90
43183;DHT22;28802;38.578;-0.066;2023-06-10T14:14:43;27.40;99.90
43183;DHT22;28802;38.578;-0.066;2023-06-10T14:17:09;27.30;99.90
43183;DHT22;28802;38.578;-0.066;2023-06-10T14:19:35;27.40;99.90
43183;DHT22;28802;38.578;-0.066;2023-06-10T14:22:01;27.60;99.90
43183;DHT22;28802;38.578;-0.066;2023-06-10T14:24:27;27.70;99.90
43183;DHT22;28802;38.578;-0.066;2023-06-10T14:26:53;27.90;99.90
43183;DHT22;28802;38.578;-0.066;2023-06-10T14:29:19;27.70;99.90
43183;DHT22;28802;38.578;-0.066;2023-06-10T14:31:45;27.60;99.90
43183;DHT22;28802;38.578;-0.066;2023-06-10T14:34:10;27.40;99.90
43183;DHT22;28802;38.578;-0.066;2023-06-10T14:36:37;27.30;99.90
43183;DHT22;28802;38.578;-0.066;2023-06-10T14:39:03;27.40;99.90
43183;DHT22;28802;38.578;-0.066;2023-06-10T14:41:29;27.40;99.90
43183;DHT22;28802;38.578;-0.066;2023-06-10T14:43:55;27.30;99.90
43183;DHT22;28802;38.578;-0.066;2023-06-10T14:46:21;27.30;99.90
43183;DHT22;28802;38.578;-0.066;2023-06-10T14:48:47;27.70;99.90
43183;DHT22;28802;38.578;-0.066;2023-06-10T14:51:13;27.90;99.90
43183;DHT22;28802;38.578;-0.066;2023-06-10T14:53:39;28.00;99.90
43183;DHT22;28802;38.578;-0.066;2023-06-10T14:56:05;27.80;99.90
43183;DHT22;28802;38.578;-0.066;2023-06-10T14:58:31;27.60;99.90
43183;DHT22;28802;38.578;-0.066;2023-06-10T15:00:57;27.90;99.90
43183;DHT22;28802;38.578;-0.066;2023-06-10T15:03:23;27.80;99.90
43183;DHT22;28802;38.578;-0.066;2023-06-10T15:05:49;27.80;99.90
43183;DHT22;28802;38.578;-0.066;2023-06-10T15:08:15;27.90;99.90
43183;DHT22;28802;38.578;-0.066;2023-06-10T15:10:41;27.70;99.90
43183;DHT22;28802;38.578;-0.066;2023-06-10T15:13:07;27.70;99.90
43183;DHT22;28802;38.578;-0.066;2023-06-10T15:15:33;27.90;99.90
43183;DHT22;28802;38.578;-0.066;2023-06-10T15:17:59;28.00;99.90
43183;DHT22;28802;38.578;-0.066;2023-06-10T15:20:25;28.00;99.90
43183;DHT22;28802;38.578;-0.066;2023-06-10T15:22:51;27.90;99.90
43183;DHT22;28802;38.578;-0.066;2023-06-10T15:25:17;27.90;99.90
43183;DHT22;28802;38.578;-0.066;2023-06-10T15:27:43;27.70;99.90
43183;DHT22;28802;38.578;-0.066;2023-06-10T15:30:09;27.50;99.90
43183;DHT22;28802;38.578;-0.066;2023-06-10T15:32:35;27.40;99.90
43183;DHT22;28802;38.578;-0.066;2023-06-10T15:35:01;27.50;99.90
43183;DHT22;28802;38.578;-0.066;2023-06-10T15:37:26;27.70;99.90
43183;DHT22;28802;38.578;-0.066;2023-06-10T15:39:52;27.60;99.90
43183;DHT22;28802;38.578;-0.066;2023-06-10T15:42:18;27.80;99.90